createdAt,value
2018-07-19T09:03:36.667Z,124.99
2018-07-19T09:03:46.666Z,124.99
2018-07-19T09:03:56.767Z,124.99
2018-07-19T09:04:06.665Z,124.99
2018-07-19T09:04:16.650Z,124.99
2018-07-19T09:04:26.648Z,124.99
2018-07-19T09:04:36.644Z,124.99
2018-07-19T09:04:46.640Z,124.99
2018-07-19T09:04:56.629Z,124.99
2018-07-19T09:05:06.625Z,124.99
2018-07-19T09:05:16.628Z,124.99
2018-07-19T09:05:26.616Z,124.99
2018-07-19T09:05:36.620Z,124.99
2018-07-19T09:05:46.606Z,124.99
2018-07-19T09:41:04.818Z,25.26
2018-07-19T09:41:14.817Z,25.27
2018-07-19T09:41:24.835Z,25.26
2018-07-19T09:41:34.833Z,25.26
2018-07-19T09:41:44.939Z,25.26
2018-07-19T09:41:54.836Z,25.26
2018-07-19T09:42:04.826Z,25.26
2018-07-19T09:42:14.816Z,25.26
2018-07-19T09:42:24.821Z,25.26
2018-07-19T09:42:34.826Z,25.26
2018-07-19T09:42:44.824Z,25.26
2018-07-19T09:42:54.822Z,25.24
2018-07-19T09:43:04.830Z,25.26
2018-07-19T09:43:14.821Z,25.26
2018-07-19T09:43:24.844Z,25.26
2018-07-19T09:43:34.836Z,25.26
2018-07-19T09:43:44.832Z,25.26
2018-07-19T09:43:54.829Z,25.26
2018-07-19T09:44:04.823Z,25.26
2018-07-19T09:44:14.838Z,25.26
2018-07-19T09:44:24.825Z,25.26
2018-07-19T09:44:34.824Z,25.26
2018-07-19T09:44:44.827Z,25.26
2018-07-19T09:44:54.829Z,25.24
2018-07-19T09:45:04.824Z,25.24
2018-07-19T09:45:14.828Z,25.26
2018-07-19T09:45:24.828Z,25.26
2018-07-19T09:45:34.825Z,25.26
2018-07-19T09:45:44.822Z,25.27
2018-07-19T09:48:02.932Z,1.00
2018-07-19T09:48:12.933Z,2.00
2018-07-19T09:48:22.931Z,3.00
2018-07-19T09:48:32.936Z,4.00
2018-07-19T09:48:42.931Z,5.00
2018-07-19T09:48:52.987Z,6.00
2018-07-19T09:49:02.927Z,7.00
2018-07-19T09:49:12.933Z,8.00
2018-07-19T09:49:22.945Z,9.00
2018-07-19T09:49:32.930Z,10.00
2018-07-19T09:49:42.940Z,11.00
2018-07-19T09:49:52.924Z,12.00
2018-07-19T09:50:02.923Z,13.00
2018-07-19T09:50:12.922Z,14.00
2018-07-19T09:50:22.917Z,15.00
2018-07-19T09:50:32.916Z,16.00
2018-07-19T09:50:42.918Z,17.00
2018-07-19T09:50:52.920Z,18.00
2018-07-19T09:51:02.917Z,19.00
2018-07-19T09:51:12.917Z,20.00
2018-07-19T09:51:22.920Z,21.00
2018-07-19T09:51:32.924Z,22.00
2018-07-19T09:51:42.914Z,23.00
2018-07-19T09:51:52.916Z,24.00
2018-07-19T09:52:02.906Z,25.00
2018-07-19T09:52:12.909Z,26.00
2018-07-19T09:52:22.915Z,27.00
2018-07-19T09:52:32.918Z,28.00
2018-07-19T09:52:42.926Z,29.00
2018-07-19T09:52:52.922Z,30.00
2018-07-19T09:53:02.918Z,31.00
2018-07-19T09:53:12.914Z,32.00
2018-07-19T09:53:22.917Z,33.00
2018-07-19T09:53:32.907Z,34.00
2018-07-19T09:53:42.912Z,35.00
2018-07-19T09:53:52.911Z,36.00
2018-07-19T09:54:02.901Z,37.00
2018-07-19T09:54:12.907Z,38.00
2018-07-19T09:54:22.908Z,39.00
2018-07-19T09:54:32.904Z,40.00
2018-07-19T09:54:42.943Z,41.00
2018-07-19T09:54:52.901Z,42.00
2018-07-19T09:55:02.904Z,43.00
2018-07-19T09:55:12.902Z,44.00
2018-07-19T09:55:22.907Z,45.00
2018-07-19T09:55:32.911Z,46.00
2018-07-19T09:55:42.898Z,47.00
2018-07-19T09:55:52.928Z,48.00
2018-07-19T09:56:02.895Z,49.00
2018-07-19T09:56:12.896Z,50.00
2018-07-19T09:56:22.895Z,51.00
2018-07-19T09:56:32.898Z,52.00
2018-07-19T09:56:42.895Z,53.00
2018-07-19T09:56:52.892Z,54.00
2018-07-19T09:57:02.896Z,55.00
2018-07-19T09:57:12.892Z,56.00
2018-07-19T09:57:22.892Z,57.00
2018-07-19T09:57:32.893Z,58.00
2018-07-19T09:57:42.890Z,59.00
2018-07-19T09:57:52.904Z,60.00
2018-07-19T09:58:02.885Z,61.00
2018-07-19T09:58:12.878Z,62.00
2018-07-19T09:58:22.877Z,63.00
2018-07-19T09:58:32.882Z,64.00
2018-07-19T09:58:42.877Z,65.00
2018-07-19T09:58:52.878Z,66.00
2018-07-19T09:59:02.878Z,67.00
2018-07-19T09:59:12.873Z,68.00
2018-07-19T09:59:22.882Z,69.00
2018-07-19T09:59:32.939Z,70.00
2018-07-19T09:59:42.879Z,71.00
2018-07-19T09:59:52.871Z,72.00
2018-07-19T10:00:02.869Z,73.00
2018-07-19T10:00:12.871Z,74.00
2018-07-19T10:00:22.868Z,75.00
2018-07-19T10:00:32.866Z,76.00
2018-07-19T10:00:42.868Z,77.00
2018-07-19T10:00:52.874Z,78.00
2018-07-19T10:01:02.861Z,79.00
2018-07-19T10:01:12.860Z,80.00
2018-07-19T10:01:22.860Z,81.00
2018-07-19T10:01:32.856Z,82.00
2018-07-19T10:01:42.858Z,83.00
2018-07-19T10:01:52.876Z,84.00
2018-07-19T10:02:02.865Z,85.00
2018-07-19T10:02:12.858Z,86.00
2018-07-19T10:02:22.856Z,87.00
2018-07-19T10:02:32.854Z,88.00
2018-07-19T10:02:42.863Z,89.00
2018-07-19T10:02:52.851Z,90.00
2018-07-19T10:03:02.872Z,91.00
2018-07-19T10:03:12.851Z,92.00
2018-07-19T10:03:22.849Z,93.00
2018-07-19T10:03:32.847Z,94.00
2018-07-19T10:03:42.844Z,95.00
2018-07-19T10:03:52.859Z,96.00
2018-07-19T10:04:02.847Z,97.00
2018-07-19T10:04:12.845Z,98.00
2018-07-19T10:04:22.839Z,99.00
2018-07-19T10:04:32.841Z,100.00
2018-07-19T10:04:42.838Z,101.00
2018-07-19T10:04:52.839Z,102.00
2018-07-19T10:05:02.849Z,103.00
2018-07-19T10:05:12.838Z,104.00
2018-07-19T10:05:22.831Z,105.00
2018-07-19T10:05:32.834Z,106.00
2018-07-19T10:05:42.888Z,107.00
2018-07-19T10:05:52.833Z,108.00
2018-07-19T10:06:02.837Z,109.00
2018-07-19T10:06:12.836Z,110.00
2018-07-19T10:06:22.831Z,111.00
2018-07-19T10:06:32.827Z,112.00
2018-07-19T10:06:42.824Z,113.00
2018-07-19T10:06:52.836Z,114.00
2018-07-19T10:07:02.829Z,115.00
2018-07-19T10:07:12.827Z,116.00
2018-07-19T10:07:22.826Z,117.00
2018-07-19T10:07:32.823Z,118.00
2018-07-19T10:07:42.871Z,119.00
2018-07-19T10:07:52.822Z,120.00
2018-07-19T10:08:02.822Z,121.00
2018-07-19T10:08:12.822Z,122.00
2018-07-19T10:08:22.825Z,123.00
2018-07-19T10:08:32.817Z,124.00
2018-07-19T10:08:42.826Z,125.00
2018-07-19T10:08:52.820Z,126.00
2018-07-19T10:09:02.815Z,127.00
2018-07-19T10:09:12.818Z,128.00
2018-07-19T10:09:22.816Z,129.00
2018-07-19T10:09:32.817Z,130.00
2018-07-19T10:09:42.817Z,131.00
2018-07-19T10:09:52.839Z,132.00
2018-07-19T10:10:02.828Z,133.00
2018-07-19T10:10:12.863Z,134.00
2018-07-19T10:10:22.809Z,135.00
2018-07-19T10:10:32.814Z,136.00
2018-07-19T10:10:42.814Z,137.00
2018-07-19T10:10:52.822Z,138.00
2018-07-19T10:11:02.806Z,139.00
2018-07-19T10:11:12.811Z,140.00
2018-07-19T10:11:22.802Z,141.00
2018-07-19T10:11:32.805Z,142.00
2018-07-19T10:11:42.812Z,143.00
2018-07-19T10:11:52.804Z,144.00
2018-07-19T10:12:02.804Z,145.00
2018-07-19T10:12:12.805Z,146.00
2018-07-19T10:12:22.796Z,147.00
2018-07-19T10:12:32.799Z,148.00
2018-07-19T10:12:42.794Z,149.00
2018-07-19T10:12:52.817Z,150.00
2018-07-19T10:13:02.792Z,151.00
2018-07-19T10:13:12.787Z,152.00
2018-07-19T10:13:22.795Z,153.00
2018-07-19T10:13:32.845Z,154.00
2018-07-19T10:13:42.897Z,155.00
2018-07-19T10:13:52.782Z,156.00
2018-07-19T10:14:02.785Z,157.00
2018-07-19T10:14:12.783Z,158.00
2018-07-19T10:14:22.786Z,159.00
2018-07-19T10:14:32.777Z,160.00
2018-07-19T10:14:42.785Z,161.00
2018-07-19T10:14:52.773Z,162.00
2018-07-19T10:15:02.826Z,163.00
2018-07-19T10:15:12.769Z,164.00
2018-07-19T10:15:22.812Z,165.00
2018-07-19T10:15:32.883Z,166.00
2018-07-19T10:15:42.762Z,167.00
2018-07-19T10:15:52.760Z,168.00
2018-07-19T10:16:02.758Z,169.00
2018-07-19T10:16:12.756Z,170.00
2018-07-19T10:16:22.754Z,171.00
2018-07-19T10:16:32.747Z,172.00
2018-07-19T10:16:42.749Z,173.00
2018-07-19T10:16:52.743Z,174.00
2018-07-19T10:17:02.761Z,175.00
2018-07-19T10:17:12.745Z,176.00
2018-07-19T10:17:22.788Z,177.00
2018-07-19T10:17:32.738Z,178.00
2018-07-19T10:17:42.735Z,179.00
2018-07-19T10:17:52.733Z,180.00
2018-07-19T10:18:02.729Z,181.00
2018-07-19T10:18:12.730Z,182.00
2018-07-19T10:18:22.726Z,183.00
2018-07-19T10:18:32.723Z,184.00
2018-07-19T10:18:42.715Z,185.00
2018-07-19T10:18:52.717Z,186.00
2018-07-19T10:19:02.713Z,187.00
2018-07-19T10:19:12.710Z,188.00
2018-07-19T10:19:22.714Z,189.00
2018-07-19T10:19:32.729Z,190.00
2018-07-19T10:19:42.704Z,191.00
2018-07-19T10:19:52.702Z,192.00
2018-07-19T10:20:02.701Z,193.00
2018-07-19T10:20:12.699Z,194.00
2018-07-19T10:20:22.697Z,195.00
2018-07-19T10:20:32.710Z,196.00
2018-07-19T10:20:42.755Z,197.00
2018-07-19T10:20:52.687Z,198.00
2018-07-19T10:21:02.683Z,199.00
2018-07-19T10:21:12.683Z,200.00
2018-07-19T10:21:22.690Z,201.00
2018-07-19T10:21:32.677Z,202.00
2018-07-19T10:21:42.674Z,203.00
2018-07-19T10:21:52.666Z,204.00
2018-07-19T10:22:02.663Z,205.00
2018-07-19T10:22:12.658Z,206.00
2018-07-19T10:22:22.657Z,207.00
2018-07-19T10:22:32.651Z,208.00
2018-07-19T10:22:42.647Z,209.00
2018-07-19T10:22:52.642Z,210.00
2018-07-19T10:23:02.646Z,211.00
2018-07-19T10:23:12.636Z,212.00
2018-07-19T10:23:22.632Z,213.00
2018-07-19T10:23:32.674Z,214.00
2018-07-19T10:23:42.625Z,215.00
2018-07-19T10:23:52.624Z,216.00
2018-07-19T10:24:02.875Z,217.00
2018-07-19T10:24:12.616Z,218.00
2018-07-19T10:24:22.629Z,219.00
2018-07-19T10:24:32.610Z,220.00
2018-07-19T10:24:42.611Z,221.00
2018-07-19T10:24:52.608Z,222.00
2018-07-19T10:25:02.608Z,223.00
2018-07-19T10:25:12.608Z,224.00
2018-07-19T10:25:22.598Z,225.00
2018-07-19T10:25:32.598Z,226.00
2018-07-19T10:25:42.593Z,227.00
2018-07-19T10:25:52.593Z,228.00
2018-07-19T10:26:02.598Z,229.00
2018-07-19T10:26:12.592Z,230.00
2018-07-19T10:26:22.589Z,231.00
2018-07-19T10:26:32.590Z,232.00
2018-07-19T10:26:42.686Z,233.00
2018-07-19T10:26:52.581Z,234.00
2018-07-19T10:27:02.577Z,235.00
2018-07-19T10:27:12.576Z,236.00
2018-07-19T10:27:22.584Z,237.00
2018-07-19T10:27:32.573Z,238.00
2018-07-19T10:27:42.574Z,239.00
2018-07-19T10:27:52.570Z,240.00
2018-07-19T10:28:02.566Z,241.00
2018-07-19T10:28:12.563Z,242.00
2018-07-19T10:28:22.564Z,243.00
2018-07-19T10:28:32.586Z,244.00
2018-07-19T10:28:42.589Z,245.00
2018-07-19T10:28:52.564Z,246.00
2018-07-19T10:29:02.558Z,247.00
2018-07-19T10:29:12.808Z,248.00
2018-07-19T10:29:22.556Z,249.00
2018-07-19T10:29:32.593Z,250.00
2018-07-19T10:29:42.610Z,251.00
2018-07-19T10:29:52.558Z,252.00
2018-07-19T10:30:02.553Z,253.00
2018-07-19T10:30:12.554Z,254.00
2018-07-19T10:30:22.548Z,255.00
2018-07-19T10:30:32.566Z,256.00
2018-07-19T10:30:42.545Z,257.00
2018-07-19T10:30:52.549Z,258.00
2018-07-19T10:31:02.544Z,259.00
2018-07-19T10:31:12.541Z,260.00
2018-07-19T10:31:22.551Z,261.00
2018-07-19T10:31:32.544Z,262.00
2018-07-19T10:31:42.534Z,263.00
2018-07-19T10:31:52.576Z,264.00
2018-07-19T10:32:02.612Z,265.00
2018-07-19T10:32:12.671Z,266.00
2018-07-19T10:32:22.699Z,267.00
2018-07-19T10:32:32.611Z,268.00
2018-07-19T10:32:42.548Z,269.00
2018-07-19T10:32:52.520Z,270.00
2018-07-19T10:33:02.521Z,271.00
2018-07-19T10:33:12.526Z,272.00
2018-07-19T10:33:22.520Z,273.00
2018-07-19T10:33:32.522Z,274.00
2018-07-19T10:33:42.518Z,275.00
2018-07-19T10:33:52.527Z,276.00
2018-07-19T10:34:02.576Z,277.00
2018-07-19T10:34:12.556Z,278.00
2018-07-19T10:34:22.580Z,279.00
2018-07-19T10:34:32.513Z,280.00
2018-07-19T10:34:42.512Z,281.00
2018-07-19T10:34:52.511Z,282.00
2018-07-19T10:35:02.511Z,283.00
2018-07-19T10:35:12.507Z,284.00
2018-07-19T10:35:22.512Z,285.00
2018-07-19T10:35:32.554Z,286.00
2018-07-19T10:35:42.520Z,287.00
2018-07-19T10:35:52.503Z,288.00
2018-07-19T10:36:02.542Z,289.00
2018-07-19T10:36:12.512Z,290.00
2018-07-19T10:36:22.505Z,291.00
2018-07-19T10:36:32.497Z,292.00
2018-07-19T10:36:42.518Z,293.00
2018-07-19T10:36:52.510Z,294.00
2018-07-19T10:37:02.508Z,295.00
2018-07-19T10:37:12.489Z,296.00
2018-07-19T10:37:22.496Z,297.00
2018-07-19T10:37:32.510Z,298.00
2018-07-19T10:37:42.490Z,299.00
2018-07-19T10:37:52.484Z,300.00
2018-07-19T10:38:02.486Z,301.00
2018-07-19T10:38:12.481Z,302.00
2018-07-19T10:38:22.527Z,303.00
2018-07-19T10:38:32.488Z,304.00
2018-07-19T10:38:42.583Z,305.00
2018-07-19T10:38:52.520Z,306.00
2018-07-19T10:39:02.486Z,307.00
2018-07-19T10:39:12.491Z,308.00
2018-07-19T10:39:22.785Z,309.00
2018-07-19T10:39:32.490Z,310.00
2018-07-19T10:39:42.504Z,311.00
2018-07-19T10:39:52.492Z,312.00
2018-07-19T10:40:02.479Z,313.00
2018-07-19T10:40:12.469Z,314.00
2018-07-19T10:40:22.492Z,315.00
2018-07-19T10:40:32.525Z,316.00
2018-07-19T10:40:42.496Z,317.00
2018-07-19T10:40:52.485Z,318.00
2018-07-19T10:41:02.477Z,319.00
2018-07-19T10:41:12.471Z,320.00
2018-07-19T10:41:22.474Z,321.00
2018-07-19T10:41:32.499Z,322.00
2018-07-19T10:41:42.472Z,323.00
2018-07-19T10:41:52.469Z,324.00
2018-07-19T10:42:02.481Z,325.00
2018-07-19T10:42:12.477Z,326.00
2018-07-19T10:42:22.460Z,327.00
2018-07-19T10:42:32.486Z,328.00
2018-07-19T10:42:42.516Z,329.00
2018-07-19T10:42:52.458Z,330.00
2018-07-19T10:43:02.534Z,331.00
2018-07-19T10:43:12.457Z,332.00
2018-07-19T10:43:22.459Z,333.00
2018-07-19T10:43:32.454Z,334.00
2018-07-19T10:43:42.453Z,335.00
2018-07-19T10:43:52.452Z,336.00
2018-07-19T10:44:02.453Z,337.00
2018-07-19T10:44:12.450Z,338.00
2018-07-19T10:44:22.506Z,339.00
2018-07-19T10:44:32.448Z,340.00
2018-07-19T10:44:42.444Z,341.00
2018-07-19T10:44:52.449Z,342.00
2018-07-19T10:45:02.445Z,343.00
2018-07-19T10:45:12.440Z,344.00
2018-07-19T10:45:22.443Z,345.00
2018-07-19T10:45:32.439Z,346.00
2018-07-19T10:45:42.443Z,347.00
2018-07-19T10:45:52.440Z,348.00
2018-07-19T10:46:02.485Z,349.00
2018-07-19T10:46:12.439Z,350.00
2018-07-19T10:46:22.434Z,351.00
2018-07-19T10:46:32.436Z,352.00
2018-07-19T10:46:42.435Z,353.00
2018-07-19T10:46:52.429Z,354.00
2018-07-19T10:47:02.426Z,355.00
2018-07-19T10:47:12.431Z,356.00
2018-07-19T10:47:22.422Z,357.00
2018-07-19T10:47:32.421Z,358.00
2018-07-19T10:47:42.428Z,359.00
2018-07-19T10:47:52.420Z,360.00
2018-07-19T10:48:02.421Z,361.00
2018-07-19T10:48:12.416Z,362.00
2018-07-19T10:48:22.412Z,363.00
2018-07-19T10:48:32.416Z,364.00
2018-07-19T10:48:42.415Z,365.00
2018-07-19T10:48:52.412Z,366.00
2018-07-19T10:49:02.422Z,367.00
2018-07-19T10:49:12.407Z,368.00
2018-07-19T10:49:22.419Z,369.00
2018-07-19T10:49:32.405Z,370.00
2018-07-19T10:49:42.426Z,371.00
2018-07-19T10:49:52.410Z,372.00
2018-07-19T10:50:02.452Z,373.00
2018-07-19T10:50:12.710Z,374.00
2018-07-19T10:50:22.473Z,375.00
2018-07-19T10:50:32.403Z,376.00
2018-07-19T10:50:42.410Z,377.00
2018-07-19T10:50:52.408Z,378.00
2018-07-19T10:51:02.392Z,379.00
2018-07-19T10:51:12.390Z,380.00
2018-07-19T10:51:22.391Z,381.00
2018-07-19T10:51:32.397Z,382.00
2018-07-19T10:51:42.792Z,383.00
2018-07-19T10:51:52.393Z,384.00
2018-07-19T10:52:02.395Z,385.00
2018-07-19T10:52:12.389Z,386.00
2018-07-19T10:52:22.397Z,387.00
2018-07-19T10:52:32.384Z,388.00
2018-07-19T10:52:42.380Z,389.00
2018-07-19T10:52:52.384Z,390.00
2018-07-19T10:53:02.377Z,391.00
2018-07-19T10:53:12.383Z,392.00
2018-07-19T10:53:22.381Z,393.00
2018-07-19T10:53:32.646Z,394.00
2018-07-19T10:53:42.386Z,395.00
2018-07-19T10:53:52.382Z,396.00
2018-07-19T10:54:02.369Z,397.00
2018-07-19T10:54:12.363Z,398.00
2018-07-19T10:54:22.611Z,399.00
2018-07-19T10:54:32.365Z,400.00
2018-07-19T10:54:42.362Z,401.00
2018-07-19T10:54:52.357Z,402.00
2018-07-19T10:55:02.353Z,403.00
2018-07-19T10:55:12.353Z,404.00
2018-07-19T10:55:22.352Z,405.00
2018-07-19T10:55:32.351Z,406.00
2018-07-19T10:55:42.350Z,407.00
2018-07-19T10:55:52.350Z,408.00
2018-07-19T10:56:02.349Z,409.00
2018-07-19T10:56:12.344Z,410.00
2018-07-19T10:56:22.344Z,411.00
2018-07-19T10:56:32.339Z,412.00
2018-07-19T10:56:42.340Z,413.00
2018-07-19T10:56:52.338Z,414.00
2018-07-19T10:57:02.339Z,415.00
2018-07-19T10:57:12.475Z,416.00
2018-07-19T10:57:22.360Z,417.00
2018-07-19T10:57:32.368Z,418.00
2018-07-19T10:57:42.330Z,419.00
2018-07-19T10:57:52.327Z,420.00
2018-07-19T10:58:02.330Z,421.00
2018-07-19T10:58:12.324Z,422.00
2018-07-19T10:58:22.323Z,423.00
2018-07-19T10:58:32.325Z,424.00
2018-07-19T10:58:42.328Z,425.00
2018-07-19T10:58:52.319Z,426.00
2018-07-19T10:59:02.339Z,427.00
2018-07-19T10:59:12.319Z,428.00
2018-07-19T10:59:22.317Z,429.00
2018-07-19T10:59:32.315Z,430.00
2018-07-19T10:59:42.327Z,431.00
2018-07-19T10:59:52.311Z,432.00
2018-07-19T11:00:02.308Z,433.00
2018-07-19T11:00:12.310Z,434.00
2018-07-19T11:00:22.325Z,435.00
2018-07-19T11:00:32.312Z,436.00
2018-07-19T11:00:42.309Z,437.00
2018-07-19T11:00:52.306Z,438.00
2018-07-19T11:01:02.307Z,439.00
2018-07-19T11:01:12.306Z,440.00
2018-07-19T11:01:25.589Z,441.00
2018-07-19T11:01:32.360Z,442.00
2018-07-19T11:01:42.397Z,443.00
2018-07-19T11:01:53.630Z,444.00
2018-07-19T11:02:02.304Z,445.00
2018-07-19T11:02:12.304Z,446.00
2018-07-19T11:02:22.306Z,447.00
2018-07-19T11:02:32.310Z,448.00
2018-07-19T11:02:42.329Z,449.00
2018-07-19T11:02:52.393Z,450.00
2018-07-19T11:03:05.002Z,451.00
2018-07-19T11:03:12.313Z,452.00
2018-07-19T11:03:22.313Z,453.00
2018-07-19T11:03:32.309Z,454.00
2018-07-19T11:03:42.307Z,455.00
2018-07-19T11:03:52.305Z,456.00
2018-07-19T11:04:02.307Z,457.00
2018-07-19T11:04:12.305Z,458.00
2018-07-19T11:04:22.306Z,459.00
2018-07-19T11:04:32.309Z,460.00
2018-07-19T11:04:42.385Z,461.00
2018-07-19T11:04:52.300Z,462.00
2018-07-19T11:05:02.306Z,463.00
2018-07-19T11:05:12.322Z,464.00
2018-07-19T11:05:22.302Z,465.00
2018-07-19T11:05:33.973Z,466.00
2018-07-19T11:05:42.318Z,467.00
2018-07-19T11:05:52.301Z,468.00
2018-07-19T11:06:04.111Z,469.00
2018-07-19T11:06:12.460Z,470.00
2018-07-19T11:06:22.303Z,471.00
2018-07-19T11:06:32.359Z,472.00
2018-07-19T11:06:42.301Z,473.00
2018-07-19T11:06:52.301Z,474.00
2018-07-19T11:07:02.359Z,475.00
2018-07-19T11:07:12.376Z,476.00
2018-07-19T11:07:22.291Z,477.00
2018-07-19T11:07:32.394Z,478.00
2018-07-19T11:07:42.291Z,479.00
2018-07-19T11:07:52.293Z,480.00
2018-07-19T11:08:02.291Z,481.00
2018-07-19T11:08:12.289Z,482.00
2018-07-19T11:08:22.289Z,483.00
2018-07-19T11:08:32.301Z,484.00
2018-07-19T11:08:42.306Z,485.00
2018-07-19T11:08:52.295Z,486.00
2018-07-19T11:09:02.288Z,487.00
2018-07-19T11:09:12.290Z,488.00
2018-07-19T11:09:22.286Z,489.00
2018-07-19T11:09:32.355Z,490.00
2018-07-19T11:09:42.396Z,491.00
2018-07-19T11:09:52.383Z,492.00
2018-07-19T11:10:02.331Z,493.00
2018-07-19T11:10:12.282Z,494.00
2018-07-19T11:10:22.468Z,495.00
2018-07-19T11:10:33.213Z,496.00
2018-07-19T11:10:42.746Z,497.00
2018-07-19T11:10:52.544Z,498.00
2018-07-19T11:11:02.766Z,499.00
2018-07-19T11:11:12.554Z,500.00
2018-07-19T11:11:22.386Z,501.00
2018-07-19T11:11:32.278Z,502.00
2018-07-19T11:11:42.274Z,503.00
2018-07-19T11:11:52.694Z,504.00
2018-07-19T11:12:02.422Z,505.00
2018-07-19T11:12:12.270Z,506.00
2018-07-19T11:12:22.266Z,507.00
2018-07-19T11:12:32.278Z,508.00
2018-07-19T11:12:42.285Z,509.00
2018-07-19T11:12:52.265Z,510.00
2018-07-19T11:13:02.271Z,511.00
2018-07-19T11:13:12.266Z,512.00
2018-07-19T11:13:22.269Z,513.00
2018-07-19T11:13:32.260Z,514.00
2018-07-19T11:13:42.262Z,515.00
2018-07-19T11:13:52.274Z,516.00
2018-07-19T11:14:02.308Z,517.00
2018-07-19T11:14:12.678Z,518.00
2018-07-19T11:14:22.605Z,519.00
2018-07-19T11:14:32.259Z,520.00
2018-07-19T11:14:42.260Z,521.00
2018-07-19T11:14:52.263Z,522.00
2018-07-19T11:15:02.255Z,523.00
2018-07-19T11:15:12.537Z,524.00
2018-07-19T11:15:22.304Z,525.00
2018-07-19T11:15:32.358Z,526.00
2018-07-19T11:15:43.041Z,527.00
2018-07-19T11:15:52.634Z,528.00
2018-07-19T11:16:02.249Z,529.00
2018-07-19T11:16:12.615Z,530.00
2018-07-19T11:16:22.260Z,531.00
2018-07-19T11:16:32.638Z,532.00
2018-07-19T11:16:42.251Z,533.00
2018-07-19T11:16:52.243Z,534.00
2018-07-19T11:17:02.243Z,535.00
2018-07-19T11:17:12.241Z,536.00
2018-07-19T11:17:22.245Z,537.00
2018-07-19T11:17:32.245Z,538.00
2018-07-19T11:17:42.242Z,539.00
2018-07-19T11:17:52.240Z,540.00
2018-07-19T11:18:02.234Z,541.00
2018-07-19T11:18:12.237Z,542.00
2018-07-19T11:18:22.243Z,543.00
2018-07-19T11:18:32.256Z,544.00
2018-07-19T11:18:42.244Z,545.00
2018-07-19T11:18:52.236Z,546.00
2018-07-19T11:19:02.244Z,547.00
2018-07-19T11:19:12.779Z,548.00
2018-07-19T11:19:22.671Z,549.00
2018-07-19T11:19:32.235Z,550.00
2018-07-19T11:19:42.236Z,551.00
2018-07-19T11:19:52.233Z,552.00
2018-07-19T11:20:02.229Z,553.00
2018-07-19T11:20:12.813Z,554.00
2018-07-19T11:20:22.461Z,555.00
2018-07-19T11:20:33.327Z,556.00
2018-07-19T11:20:42.230Z,557.00
2018-07-19T11:21:03.616Z,559.00
2018-07-19T11:21:13.603Z,560.00
2018-07-19T11:21:23.599Z,561.00
2018-07-19T11:21:33.596Z,562.00
2018-07-19T11:21:43.596Z,563.00
2018-07-19T11:21:53.599Z,564.00
2018-07-19T11:22:03.592Z,565.00
2018-07-19T11:22:13.589Z,566.00
2018-07-19T11:22:23.589Z,567.00
2018-07-19T11:22:33.586Z,568.00
2018-07-19T11:22:43.667Z,569.00
2018-07-19T11:22:53.579Z,570.00
2018-07-19T11:23:03.581Z,571.00
2018-07-19T11:23:13.577Z,572.00
2018-07-19T11:23:23.575Z,573.00
2018-07-19T11:23:33.600Z,574.00
2018-07-19T11:23:43.573Z,575.00
2018-07-19T11:23:53.564Z,576.00
2018-07-19T11:24:03.567Z,577.00
2018-07-19T11:24:14.214Z,578.00
2018-07-19T11:24:23.563Z,579.00
2018-07-19T11:24:33.610Z,580.00
2018-07-19T11:24:43.559Z,581.00
2018-07-19T11:24:53.562Z,582.00
2018-07-19T11:25:03.557Z,583.00
2018-07-19T11:25:13.553Z,584.00
2018-07-19T11:25:23.565Z,585.00
2018-07-19T11:25:33.566Z,586.00
2018-07-19T11:25:43.548Z,587.00
2018-07-19T11:25:53.565Z,588.00
2018-07-19T11:26:03.543Z,589.00
2018-07-19T11:26:13.546Z,590.00
2018-07-19T11:26:23.541Z,591.00
2018-07-19T11:26:33.734Z,592.00
2018-07-19T11:26:43.826Z,593.00
2018-07-19T11:26:53.590Z,594.00
2018-07-19T11:27:03.588Z,595.00
2018-07-19T11:27:13.532Z,596.00
2018-07-19T11:27:23.527Z,597.00
2018-07-19T11:27:33.526Z,598.00
2018-07-19T11:27:43.523Z,599.00
2018-07-19T11:27:53.527Z,600.00
2018-07-19T11:28:03.526Z,601.00
2018-07-19T11:28:13.882Z,602.00
2018-07-19T11:28:23.626Z,603.00
2018-07-19T11:28:33.579Z,604.00
2018-07-19T11:28:43.994Z,605.00
2018-07-19T11:28:53.519Z,606.00
2018-07-19T11:29:03.516Z,607.00
2018-07-19T11:29:13.519Z,608.00
2018-07-19T11:29:23.514Z,609.00
2018-07-19T11:29:33.531Z,610.00
2018-07-19T11:29:44.571Z,611.00
2018-07-19T11:29:54.424Z,612.00
2018-07-19T11:30:03.702Z,613.00
2018-07-19T11:30:13.515Z,614.00
2018-07-19T11:30:23.509Z,615.00
2018-07-19T11:30:33.510Z,616.00
2018-07-19T11:30:43.747Z,617.00
2018-07-19T11:30:54.165Z,618.00
2018-07-19T11:31:03.568Z,619.00
2018-07-19T11:31:14.276Z,620.00
2018-07-19T11:31:23.504Z,621.00
2018-07-19T11:31:33.511Z,622.00
2018-07-19T11:31:43.504Z,623.00
2018-07-19T11:31:53.499Z,624.00
2018-07-19T11:32:03.501Z,625.00
2018-07-19T11:32:14.301Z,626.00
2018-07-19T11:32:23.497Z,627.00
2018-07-19T11:32:33.539Z,628.00
2018-07-19T11:32:43.485Z,629.00
2018-07-19T11:32:53.487Z,630.00
2018-07-19T11:33:03.543Z,631.00
2018-07-19T11:33:13.486Z,632.00
2018-07-19T11:33:23.488Z,633.00
2018-07-19T11:33:33.490Z,634.00
2018-07-19T11:33:43.480Z,635.00
2018-07-19T11:33:53.474Z,636.00
2018-07-19T11:34:03.473Z,637.00
2018-07-19T11:34:13.474Z,638.00
2018-07-19T11:34:23.469Z,639.00
2018-07-19T11:34:33.469Z,640.00
2018-07-19T11:34:43.474Z,641.00
2018-07-19T11:34:53.465Z,642.00
2018-07-19T11:35:03.458Z,643.00
2018-07-19T11:35:13.513Z,644.00
2018-07-19T11:35:23.522Z,645.00
2018-07-19T11:35:33.636Z,646.00
2018-07-19T11:35:43.456Z,647.00
2018-07-19T11:35:53.550Z,648.00
2018-07-19T11:36:03.455Z,649.00
2018-07-19T11:36:13.883Z,650.00
2018-07-19T11:36:23.452Z,651.00
2018-07-19T11:36:34.705Z,652.00
2018-07-19T11:36:43.450Z,653.00
2018-07-19T11:36:53.444Z,654.00
2018-07-19T11:37:03.447Z,655.00
2018-07-19T11:37:13.444Z,656.00
2018-07-19T11:37:23.442Z,657.00
2018-07-19T11:37:33.457Z,658.00
2018-07-19T11:37:43.442Z,659.00
2018-07-19T11:37:53.442Z,660.00
2018-07-19T11:38:03.442Z,661.00
2018-07-19T11:38:13.434Z,662.00
2018-07-19T11:38:23.436Z,663.00
2018-07-19T11:38:33.433Z,664.00
2018-07-19T11:38:43.427Z,665.00
2018-07-19T11:38:53.427Z,666.00
2018-07-19T11:39:03.420Z,667.00
2018-07-19T11:39:13.423Z,668.00
2018-07-19T11:39:23.423Z,669.00
2018-07-19T11:39:33.422Z,670.00
2018-07-19T11:39:43.419Z,671.00
2018-07-19T11:39:53.420Z,672.00
2018-07-19T11:40:03.414Z,673.00
2018-07-19T11:40:13.416Z,674.00
2018-07-19T11:40:23.413Z,675.00
2018-07-19T11:40:33.415Z,676.00
2018-07-19T11:40:43.424Z,677.00
2018-07-19T11:40:53.411Z,678.00
2018-07-19T11:41:03.407Z,679.00
2018-07-19T11:41:13.580Z,680.00
2018-07-19T11:41:23.407Z,681.00
2018-07-19T11:41:33.412Z,682.00
2018-07-19T11:41:43.412Z,683.00
2018-07-19T11:41:53.409Z,684.00
2018-07-19T11:42:14.788Z,686.00
2018-07-19T11:42:24.801Z,687.00
2018-07-19T11:42:34.781Z,688.00
2018-07-19T11:42:44.799Z,689.00
2018-07-19T11:43:06.158Z,691.00
2018-07-19T11:43:16.838Z,692.00
2018-07-19T11:43:26.159Z,693.00
2018-07-19T11:43:37.440Z,694.00
2018-07-19T11:43:46.155Z,695.00
2018-07-19T11:43:56.823Z,696.00
2018-07-19T11:44:06.160Z,697.00
2018-07-19T11:44:16.756Z,698.00
2018-07-19T11:44:26.150Z,699.00
2018-07-19T11:44:36.150Z,700.00
2018-07-19T11:44:46.210Z,701.00
2018-07-19T11:44:56.148Z,702.00
2018-07-19T11:45:06.152Z,703.00
2018-07-19T11:45:16.148Z,704.00
2018-07-19T11:45:26.303Z,705.00
2018-07-19T11:45:36.219Z,706.00
2018-07-19T11:45:46.160Z,707.00
2018-07-19T11:45:56.145Z,708.00
2018-07-19T11:46:08.410Z,709.00
2018-07-19T11:46:16.141Z,710.00
2018-07-19T11:46:26.429Z,711.00
2018-07-19T11:46:36.136Z,712.00
2018-07-19T11:46:46.271Z,713.00